OAL9NJ LGNX-LGAV
Flight info
| Callsign | OAL9NJ |
|---|---|
| Flight time | 0h 28m |
| Altitude | 16000 |
| Route | N0316F160 NITSA J62 RIPLI L995 VARIX |
| Aircraft | DH8D/M-SDE2E3FGRY/H |
Departure
| Time | 2026-04-26 17:23 |
|---|---|
| Airport | Naxos Island National Airport (LGNX) |
Arrival
| Time | 2026-04-26 17:51 |
|---|---|
| Airport | Athens Eleftherios Venizelos International Airport (LGAV) |
| Time | Latitude | Longitude | Altitude | Speed | Heading |
|---|---|---|---|---|---|
| 2026-04-26 16:54 | 37.08085 | 25.36910 | 27 ft | 0 kts | 295° |
| 2026-04-26 17:19 | 37.08092 | 25.36900 | 25 ft | 4 kts | 325° |
| 2026-04-26 17:19 | 37.08115 | 25.36886 | 25 ft | 2 kts | 303° |
| 2026-04-26 17:20 | 37.08117 | 25.36863 | 24 ft | 3 kts | 270° |
| 2026-04-26 17:20 | 37.08117 | 25.36852 | 24 ft | 4 kts | 270° |
| 2026-04-26 17:20 | 37.08084 | 25.36812 | 23 ft | 6 kts | 181° |
| 2026-04-26 17:20 | 37.08003 | 25.36811 | 23 ft | 16 kts | 181° |
| 2026-04-26 17:21 | 37.07878 | 25.36807 | 25 ft | 16 kts | 181° |
| 2026-04-26 17:21 | 37.07775 | 25.36800 | 28 ft | 12 kts | 191° |
| 2026-04-26 17:21 | 37.07722 | 25.36804 | 29 ft | 4 kts | 89° |
| 2026-04-26 17:21 | 37.07746 | 25.36812 | 29 ft | 4 kts | 348° |
| 2026-04-26 17:22 | 37.07778 | 25.36806 | 28 ft | 5 kts | 359° |
| 2026-04-26 17:22 | 37.07786 | 25.36806 | 28 ft | 0 kts | 0° |
| 2026-04-26 17:23 | 37.08130 | 25.36813 | 25 ft | 94 kts | 1° |
| 2026-04-26 17:23 | 37.08981 | 25.36859 | 160 ft | 134 kts | 4° |
| 2026-04-26 17:23 | 37.09914 | 25.36966 | 722 ft | 139 kts | 4° |
| 2026-04-26 17:23 | 37.10904 | 25.37060 | 1264 ft | 151 kts | 2° |
| 2026-04-26 17:24 | 37.11983 | 25.37165 | 1796 ft | 160 kts | 3° |
| 2026-04-26 17:24 | 37.13108 | 25.37300 | 2319 ft | 167 kts | 2° |
| 2026-04-26 17:24 | 37.14292 | 25.37413 | 2783 ft | 175 kts | 3° |
| 2026-04-26 17:24 | 37.15532 | 25.37539 | 3255 ft | 183 kts | 3° |
| 2026-04-26 17:25 | 37.16806 | 25.37660 | 3797 ft | 187 kts | 2° |
| 2026-04-26 17:25 | 37.18114 | 25.37770 | 4389 ft | 189 kts | 3° |
| 2026-04-26 17:25 | 37.19423 | 25.37837 | 4951 ft | 191 kts | 355° |
| 2026-04-26 17:25 | 37.20767 | 25.37680 | 5412 ft | 199 kts | 352° |
| 2026-04-26 17:26 | 37.22172 | 25.37440 | 5853 ft | 209 kts | 351° |
| 2026-04-26 17:26 | 37.23633 | 25.37162 | 6342 ft | 215 kts | 350° |
| 2026-04-26 17:26 | 37.25120 | 25.36875 | 6814 ft | 222 kts | 351° |
| 2026-04-26 17:26 | 37.26614 | 25.36424 | 7327 ft | 224 kts | 333° |
| 2026-04-26 17:27 | 37.27720 | 25.35041 | 7769 ft | 229 kts | 302° |
| 2026-04-26 17:27 | 37.28409 | 25.33255 | 8359 ft | 230 kts | 294° |
| 2026-04-26 17:27 | 37.28984 | 25.31368 | 8881 ft | 233 kts | 291° |
| 2026-04-26 17:27 | 37.29495 | 25.29458 | 9473 ft | 234 kts | 290° |
| 2026-04-26 17:28 | 37.30017 | 25.27513 | 9975 ft | 237 kts | 291° |
| 2026-04-26 17:28 | 37.30547 | 25.25563 | 10493 ft | 239 kts | 291° |
| 2026-04-26 17:28 | 37.31083 | 25.23585 | 10986 ft | 242 kts | 291° |
| 2026-04-26 17:28 | 37.31626 | 25.21574 | 11492 ft | 243 kts | 292° |
| 2026-04-26 17:29 | 37.32166 | 25.19567 | 11954 ft | 246 kts | 292° |
| 2026-04-26 17:29 | 37.32530 | 25.18214 | 12261 ft | 248 kts | 292° |
| 2026-04-26 17:29 | 37.33273 | 25.15443 | 12859 ft | 251 kts | 292° |
| 2026-04-26 17:29 | 37.33824 | 25.13388 | 13283 ft | 253 kts | 292° |
| 2026-04-26 17:30 | 37.34384 | 25.11290 | 13712 ft | 255 kts | 293° |
| 2026-04-26 17:30 | 37.34951 | 25.09168 | 14123 ft | 257 kts | 293° |
| 2026-04-26 17:30 | 37.35518 | 25.07039 | 14557 ft | 257 kts | 293° |
| 2026-04-26 17:30 | 37.36088 | 25.04901 | 14940 ft | 260 kts | 293° |
| 2026-04-26 17:31 | 37.36660 | 25.02751 | 15320 ft | 262 kts | 293° |
| 2026-04-26 17:31 | 37.37247 | 25.00553 | 15554 ft | 269 kts | 293° |
| 2026-04-26 17:31 | 37.37853 | 24.98280 | 15766 ft | 277 kts | 293° |
| 2026-04-26 17:31 | 37.38464 | 24.95985 | 15946 ft | 285 kts | 293° |
| 2026-04-26 17:32 | 37.39111 | 24.93555 | 16000 ft | 296 kts | 292° |
| 2026-04-26 17:32 | 37.39769 | 24.91079 | 16014 ft | 306 kts | 292° |
| 2026-04-26 17:32 | 37.40456 | 24.88493 | 16016 ft | 315 kts | 292° |
| 2026-04-26 17:32 | 37.41159 | 24.85839 | 16015 ft | 323 kts | 292° |
| 2026-04-26 17:33 | 37.41872 | 24.83146 | 16025 ft | 329 kts | 292° |
| 2026-04-26 17:33 | 37.42595 | 24.80429 | 16016 ft | 330 kts | 292° |
| 2026-04-26 17:33 | 37.43323 | 24.77723 | 16000 ft | 326 kts | 292° |
| 2026-04-26 17:34 | 37.44750 | 24.72375 | 16006 ft | 320 kts | 292° |
| 2026-04-26 17:34 | 37.45449 | 24.69732 | 16010 ft | 318 kts | 292° |
| 2026-04-26 17:34 | 37.46148 | 24.67077 | 16005 ft | 316 kts | 292° |
| 2026-04-26 17:34 | 37.46826 | 24.64495 | 16013 ft | 315 kts | 292° |
| 2026-04-26 17:35 | 37.47512 | 24.61876 | 16006 ft | 314 kts | 292° |
| 2026-04-26 17:35 | 37.48190 | 24.59279 | 16010 ft | 313 kts | 292° |
| 2026-04-26 17:35 | 37.48869 | 24.56677 | 16010 ft | 312 kts | 292° |
| 2026-04-26 17:35 | 37.49546 | 24.54075 | 16007 ft | 312 kts | 292° |
| 2026-04-26 17:36 | 37.50218 | 24.51489 | 16007 ft | 311 kts | 292° |
| 2026-04-26 17:36 | 37.50888 | 24.48906 | 16009 ft | 311 kts | 292° |
| 2026-04-26 17:36 | 37.51561 | 24.46309 | 16007 ft | 311 kts | 292° |
| 2026-04-26 17:36 | 37.52227 | 24.43735 | 16007 ft | 311 kts | 292° |
| 2026-04-26 17:37 | 37.52892 | 24.41163 | 16008 ft | 310 kts | 292° |
| 2026-04-26 17:37 | 37.53556 | 24.38590 | 16002 ft | 310 kts | 292° |
| 2026-04-26 17:37 | 37.54229 | 24.35983 | 16011 ft | 310 kts | 292° |
| 2026-04-26 17:38 | 37.56008 | 24.31167 | 15859 ft | 298 kts | 319° |
| 2026-04-26 17:38 | 37.57793 | 24.29998 | 15625 ft | 291 kts | 347° |
| 2026-04-26 17:38 | 37.59817 | 24.29555 | 15272 ft | 295 kts | 352° |
| 2026-04-26 17:38 | 37.61858 | 24.29207 | 14880 ft | 300 kts | 353° |
| 2026-04-26 17:39 | 37.63951 | 24.28875 | 14464 ft | 304 kts | 353° |
| 2026-04-26 17:39 | 37.66055 | 24.28552 | 14039 ft | 306 kts | 354° |
| 2026-04-26 17:39 | 37.68165 | 24.28234 | 13611 ft | 307 kts | 354° |
| 2026-04-26 17:39 | 37.70273 | 24.27922 | 13183 ft | 307 kts | 354° |
| 2026-04-26 17:40 | 37.72420 | 24.27606 | 12750 ft | 307 kts | 354° |
| 2026-04-26 17:40 | 37.73123 | 24.27503 | 12609 ft | 307 kts | 353° |
| 2026-04-26 17:40 | 37.76656 | 24.26990 | 11896 ft | 302 kts | 353° |
| 2026-04-26 17:40 | 37.78694 | 24.26690 | 11476 ft | 289 kts | 353° |
| 2026-04-26 17:41 | 37.80637 | 24.26405 | 11082 ft | 276 kts | 353° |
| 2026-04-26 17:41 | 37.82519 | 24.26130 | 10708 ft | 267 kts | 353° |
| 2026-04-26 17:41 | 37.84327 | 24.25866 | 10345 ft | 259 kts | 353° |
| 2026-04-26 17:41 | 37.86093 | 24.25607 | 9991 ft | 252 kts | 353° |
| 2026-04-26 17:42 | 37.87830 | 24.25354 | 9641 ft | 247 kts | 353° |
| 2026-04-26 17:42 | 37.89512 | 24.25109 | 9305 ft | 244 kts | 353° |
| 2026-04-26 17:42 | 37.91208 | 24.24863 | 8950 ft | 243 kts | 353° |
| 2026-04-26 17:42 | 37.92872 | 24.24622 | 8610 ft | 242 kts | 353° |
| 2026-04-26 17:43 | 37.94567 | 24.24378 | 8271 ft | 246 kts | 353° |
| 2026-04-26 17:43 | 37.96266 | 24.24133 | 7928 ft | 248 kts | 353° |
| 2026-04-26 17:43 | 37.97997 | 24.23884 | 7580 ft | 250 kts | 353° |
| 2026-04-26 17:43 | 37.99720 | 24.23608 | 7231 ft | 252 kts | 349° |
| 2026-04-26 17:44 | 38.01387 | 24.22980 | 6879 ft | 247 kts | 339° |
| 2026-04-26 17:44 | 38.02939 | 24.22141 | 6534 ft | 236 kts | 335° |
| 2026-04-26 17:44 | 38.04370 | 24.21230 | 6209 ft | 226 kts | 332° |
| 2026-04-26 17:44 | 38.05703 | 24.20252 | 5899 ft | 217 kts | 329° |
| 2026-04-26 17:45 | 38.06938 | 24.19225 | 5600 ft | 206 kts | 326° |
| 2026-04-26 17:45 | 38.08068 | 24.18169 | 5316 ft | 195 kts | 323° |
| 2026-04-26 17:45 | 38.09084 | 24.17114 | 5050 ft | 186 kts | 321° |
| 2026-04-26 17:45 | 38.10095 | 24.15973 | 4829 ft | 202 kts | 319° |
| 2026-04-26 17:46 | 38.11090 | 24.14700 | 4537 ft | 202 kts | 311° |
| 2026-04-26 17:46 | 38.11560 | 24.13067 | 4381 ft | 201 kts | 270° |
| 2026-04-26 17:46 | 38.11033 | 24.11465 | 4246 ft | 203 kts | 236° |
| 2026-04-26 17:46 | 38.10095 | 24.10099 | 4033 ft | 208 kts | 229° |
| 2026-04-26 17:47 | 38.09100 | 24.08735 | 3822 ft | 211 kts | 231° |
| 2026-04-26 17:47 | 38.08781 | 24.08285 | 3758 ft | 211 kts | 231° |
| 2026-04-26 17:47 | 38.07064 | 24.06019 | 3448 ft | 215 kts | 221° |
| 2026-04-26 17:47 | 38.05782 | 24.04974 | 3270 ft | 217 kts | 208° |
| 2026-04-26 17:48 | 38.04470 | 24.04046 | 3101 ft | 209 kts | 223° |
| 2026-04-26 17:48 | 38.03525 | 24.02812 | 3016 ft | 179 kts | 225° |
| 2026-04-26 17:48 | 38.02608 | 24.01899 | 2962 ft | 157 kts | 219° |
| 2026-04-26 17:48 | 38.01765 | 24.01016 | 2531 ft | 158 kts | 222° |
| 2026-04-26 17:49 | 38.00916 | 24.00163 | 2095 ft | 156 kts | 219° |
| 2026-04-26 17:49 | 38.00070 | 23.99328 | 1688 ft | 148 kts | 218° |
| 2026-04-26 17:49 | 37.99275 | 23.98591 | 1412 ft | 137 kts | 217° |
| 2026-04-26 17:49 | 37.98520 | 23.97879 | 1116 ft | 133 kts | 217° |
| 2026-04-26 17:50 | 37.97776 | 23.97210 | 985 ft | 128 kts | 217° |
| 2026-04-26 17:50 | 37.97059 | 23.96542 | 857 ft | 127 kts | 219° |
| 2026-04-26 17:50 | 37.96363 | 23.95877 | 770 ft | 125 kts | 218° |
| 2026-04-26 17:50 | 37.95667 | 23.95219 | 580 ft | 125 kts | 219° |
| 2026-04-26 17:51 | 37.94970 | 23.94562 | 413 ft | 124 kts | 218° |
| 2026-04-26 17:51 | 37.94271 | 23.93905 | 293 ft | 121 kts | 219° |
| 2026-04-26 17:51 | 37.93639 | 23.93299 | 290 ft | 106 kts | 218° |
| 2026-04-26 17:51 | 37.93224 | 23.92919 | 290 ft | 49 kts | 213° |
| 2026-04-26 17:52 | 37.93004 | 23.92828 | 289 ft | 12 kts | 187° |
| 2026-04-26 17:52 | 37.92963 | 23.92821 | 290 ft | 0 kts | 187° |
| 2026-04-26 17:52 | 37.92949 | 23.92827 | 290 ft | 5 kts | 142° |
| 2026-04-26 17:53 | 37.92936 | 23.92895 | 290 ft | 9 kts | 82° |
| 2026-04-26 17:53 | 37.92980 | 23.92960 | 290 ft | 10 kts | 36° |
| 2026-04-26 17:53 | 37.93045 | 23.93021 | 290 ft | 12 kts | 37° |
| 2026-04-26 17:54 | 37.93192 | 23.93164 | 290 ft | 14 kts | 37° |
| 2026-04-26 17:54 | 37.93277 | 23.93243 | 290 ft | 15 kts | 36° |
| 2026-04-26 17:54 | 37.93366 | 23.93325 | 290 ft | 15 kts | 37° |
| 2026-04-26 17:54 | 37.93430 | 23.93414 | 290 ft | 12 kts | 90° |
| 2026-04-26 17:55 | 37.93391 | 23.93503 | 290 ft | 11 kts | 126° |
| 2026-04-26 17:55 | 37.93348 | 23.93577 | 289 ft | 9 kts | 127° |
| 2026-04-26 17:55 | 37.93309 | 23.93642 | 289 ft | 8 kts | 127° |
| 2026-04-26 17:55 | 37.93267 | 23.93713 | 289 ft | 12 kts | 126° |
| 2026-04-26 17:56 | 37.93199 | 23.93825 | 289 ft | 19 kts | 128° |
| 2026-04-26 17:56 | 37.93014 | 23.94139 | 289 ft | 20 kts | 127° |
| 2026-04-26 17:57 | 37.92878 | 23.94373 | 289 ft | 12 kts | 95° |
| 2026-04-26 17:57 | 37.92924 | 23.94449 | 289 ft | 11 kts | 35° |
| 2026-04-26 17:57 | 37.92984 | 23.94506 | 289 ft | 10 kts | 37° |
| 2026-04-26 17:57 | 37.93051 | 23.94571 | 289 ft | 13 kts | 37° |
| 2026-04-26 17:58 | 37.93316 | 23.94819 | 289 ft | 16 kts | 37° |
| 2026-04-26 17:59 | 37.93498 | 23.94993 | 289 ft | 15 kts | 37° |
| 2026-04-26 17:59 | 37.93584 | 23.95076 | 289 ft | 15 kts | 37° |
| 2026-04-26 17:59 | 37.93666 | 23.95153 | 289 ft | 14 kts | 37° |
| 2026-04-26 17:59 | 37.93747 | 23.95229 | 289 ft | 14 kts | 37° |
| 2026-04-26 18:00 | 37.93827 | 23.95304 | 289 ft | 13 kts | 37° |
| 2026-04-26 18:00 | 37.93892 | 23.95349 | 289 ft | 7 kts | 336° |
| 2026-04-26 18:00 | 37.93925 | 23.95296 | 289 ft | 7 kts | 306° |
| 2026-04-26 18:00 | 37.93951 | 23.95251 | 289 ft | 2 kts | 306° |
| 2026-04-26 18:01 | 37.93964 | 23.95238 | 289 ft | 1 kts | 354° |
| 2026-04-26 18:01 | 37.93982 | 23.95251 | 289 ft | 6 kts | 33° |
| 2026-04-26 18:01 | 37.94019 | 23.95286 | 289 ft | 4 kts | 38° |
| 2026-04-26 18:01 | 37.94024 | 23.95292 | 289 ft | 0 kts | 38° |